sensor_id;sensor_type;location;lat;lon;timestamp;temperature;humidity
27619;DHT22;15039;50.830;4.730;2022-09-09T00:01:32;15.60;99.90
27619;DHT22;15039;50.830;4.730;2022-09-09T00:04:05;15.60;99.90
27619;DHT22;15039;50.830;4.730;2022-09-09T00:06:48;15.60;99.90
27619;DHT22;15039;50.830;4.730;2022-09-09T00:09:18;15.50;99.90
27619;DHT22;15039;50.830;4.730;2022-09-09T00:17:18;15.60;99.90
27619;DHT22;15039;50.830;4.730;2022-09-09T00:19:55;15.70;99.90
27619;DHT22;15039;50.830;4.730;2022-09-09T00:22:26;15.60;99.90
27619;DHT22;15039;50.830;4.730;2022-09-09T00:24:54;15.60;99.90
27619;DHT22;15039;50.830;4.730;2022-09-09T00:27:33;15.60;99.90
27619;DHT22;15039;50.830;4.730;2022-09-09T00:30:23;15.70;99.90
27619;DHT22;15039;50.830;4.730;2022-09-09T00:32:54;15.70;99.90
27619;DHT22;15039;50.830;4.730;2022-09-09T00:35:34;15.70;99.90
27619;DHT22;15039;50.830;4.730;2022-09-09T00:38:20;15.70;99.90
27619;DHT22;15039;50.830;4.730;2022-09-09T00:40:50;15.60;99.90
27619;DHT22;15039;50.830;4.730;2022-09-09T00:43:28;15.70;99.90
27619;DHT22;15039;50.830;4.730;2022-09-09T00:48:35;15.60;99.90
27619;DHT22;15039;50.830;4.730;2022-09-09T00:51:20;15.60;99.90
27619;DHT22;15039;50.830;4.730;2022-09-09T00:57:48;15.60;99.90
27619;DHT22;15039;50.830;4.730;2022-09-09T01:02:39;15.70;99.90
27619;DHT22;15039;50.830;4.730;2022-09-09T01:08:09;15.70;99.90
27619;DHT22;15039;50.830;4.730;2022-09-09T01:10:50;15.60;99.90
27619;DHT22;15039;50.830;4.730;2022-09-09T01:13:33;15.60;99.90
27619;DHT22;15039;50.830;4.730;2022-09-09T01:16:02;15.60;99.90
27619;DHT22;15039;50.830;4.730;2022-09-09T01:18:39;15.60;99.90
27619;DHT22;15039;50.830;4.730;2022-09-09T01:21:09;15.70;99.90
27619;DHT22;15039;50.830;4.730;2022-09-09T01:26:30;15.80;99.90
27619;DHT22;15039;50.830;4.730;2022-09-09T01:28:57;15.70;99.90
27619;DHT22;15039;50.830;4.730;2022-09-09T01:31:29;15.70;99.90
27619;DHT22;15039;50.830;4.730;2022-09-09T01:33:56;15.80;99.90
27619;DHT22;15039;50.830;4.730;2022-09-09T01:36:31;15.80;99.90
27619;DHT22;15039;50.830;4.730;2022-09-09T01:39:00;15.80;99.90
27619;DHT22;15039;50.830;4.730;2022-09-09T01:41:26;15.70;99.90
27619;DHT22;15039;50.830;4.730;2022-09-09T01:43:54;15.70;99.90
27619;DHT22;15039;50.830;4.730;2022-09-09T01:46:21;15.90;99.90
27619;DHT22;15039;50.830;4.730;2022-09-09T01:48:49;15.90;99.90
27619;DHT22;15039;50.830;4.730;2022-09-09T01:51:15;15.80;99.90
27619;DHT22;15039;50.830;4.730;2022-09-09T01:53:41;15.80;99.90
27619;DHT22;15039;50.830;4.730;2022-09-09T01:56:32;15.80;99.90
27619;DHT22;15039;50.830;4.730;2022-09-09T01:59:24;15.90;99.90
27619;DHT22;15039;50.830;4.730;2022-09-09T02:02:10;16.00;99.90
27619;DHT22;15039;50.830;4.730;2022-09-09T02:04:48;15.90;99.90
27619;DHT22;15039;50.830;4.730;2022-09-09T02:10:05;15.90;99.90
27619;DHT22;15039;50.830;4.730;2022-09-09T02:12:32;15.90;99.90
27619;DHT22;15039;50.830;4.730;2022-09-09T02:15:11;15.90;99.90
27619;DHT22;15039;50.830;4.730;2022-09-09T02:17:41;15.90;99.90
27619;DHT22;15039;50.830;4.730;2022-09-09T02:20:12;15.90;99.90
27619;DHT22;15039;50.830;4.730;2022-09-09T02:22:40;15.80;99.90
27619;DHT22;15039;50.830;4.730;2022-09-09T02:25:08;15.80;99.90
27619;DHT22;15039;50.830;4.730;2022-09-09T02:27:35;15.80;99.90
27619;DHT22;15039;50.830;4.730;2022-09-09T02:30:03;15.80;99.90
27619;DHT22;15039;50.830;4.730;2022-09-09T02:32:31;15.80;99.90
27619;DHT22;15039;50.830;4.730;2022-09-09T02:35:02;15.90;99.90
27619;DHT22;15039;50.830;4.730;2022-09-09T02:37:35;15.90;99.90
27619;DHT22;15039;50.830;4.730;2022-09-09T02:40:03;15.90;99.90
27619;DHT22;15039;50.830;4.730;2022-09-09T02:42:30;15.80;99.90
27619;DHT22;15039;50.830;4.730;2022-09-09T02:44:57;15.70;99.90
27619;DHT22;15039;50.830;4.730;2022-09-09T02:47:32;15.80;99.90
27619;DHT22;15039;50.830;4.730;2022-09-09T02:50:17;15.80;99.90
27619;DHT22;15039;50.830;4.730;2022-09-09T02:55:43;15.80;99.90
27619;DHT22;15039;50.830;4.730;2022-09-09T02:58:13;15.80;99.90
27619;DHT22;15039;50.830;4.730;2022-09-09T03:00:45;15.70;99.90
27619;DHT22;15039;50.830;4.730;2022-09-09T03:03:11;15.80;99.90
27619;DHT22;15039;50.830;4.730;2022-09-09T03:05:37;15.80;99.90
27619;DHT22;15039;50.830;4.730;2022-09-09T03:08:04;15.80;99.90
27619;DHT22;15039;50.830;4.730;2022-09-09T03:10:34;15.70;99.90
27619;DHT22;15039;50.830;4.730;2022-09-09T03:13:01;15.70;99.90
27619;DHT22;15039;50.830;4.730;2022-09-09T03:15:27;15.70;99.90
27619;DHT22;15039;50.830;4.730;2022-09-09T03:17:55;15.80;99.90
27619;DHT22;15039;50.830;4.730;2022-09-09T03:20:25;15.60;99.90
27619;DHT22;15039;50.830;4.730;2022-09-09T03:22:52;15.60;99.90
27619;DHT22;15039;50.830;4.730;2022-09-09T03:25:17;15.70;99.90
27619;DHT22;15039;50.830;4.730;2022-09-09T03:27:43;15.70;99.90
27619;DHT22;15039;50.830;4.730;2022-09-09T03:30:09;15.80;99.90
27619;DHT22;15039;50.830;4.730;2022-09-09T03:32:35;15.70;99.90
27619;DHT22;15039;50.830;4.730;2022-09-09T03:35:00;15.60;99.90
27619;DHT22;15039;50.830;4.730;2022-09-09T03:37:26;15.60;99.90
27619;DHT22;15039;50.830;4.730;2022-09-09T03:39:52;15.70;99.90
27619;DHT22;15039;50.830;4.730;2022-09-09T03:42:20;15.80;99.90
27619;DHT22;15039;50.830;4.730;2022-09-09T03:44:47;15.80;99.90
27619;DHT22;15039;50.830;4.730;2022-09-09T03:47:16;15.70;99.90
27619;DHT22;15039;50.830;4.730;2022-09-09T03:49:41;15.80;99.90
27619;DHT22;15039;50.830;4.730;2022-09-09T03:52:08;15.70;99.90
27619;DHT22;15039;50.830;4.730;2022-09-09T03:54:34;15.70;99.90
27619;DHT22;15039;50.830;4.730;2022-09-09T03:57:00;15.70;99.90
27619;DHT22;15039;50.830;4.730;2022-09-09T03:59:26;15.70;99.90
27619;DHT22;15039;50.830;4.730;2022-09-09T04:01:51;15.70;99.90
27619;DHT22;15039;50.830;4.730;2022-09-09T04:04:17;15.70;99.90
27619;DHT22;15039;50.830;4.730;2022-09-09T04:06:42;15.70;99.90
27619;DHT22;15039;50.830;4.730;2022-09-09T04:09:08;15.60;99.90
27619;DHT22;15039;50.830;4.730;2022-09-09T04:11:34;15.60;99.90
27619;DHT22;15039;50.830;4.730;2022-09-09T04:13:59;15.50;99.90
27619;DHT22;15039;50.830;4.730;2022-09-09T04:16:25;15.50;99.90
27619;DHT22;15039;50.830;4.730;2022-09-09T04:18:51;15.50;99.90
27619;DHT22;15039;50.830;4.730;2022-09-09T04:21:18;15.40;99.90
27619;DHT22;15039;50.830;4.730;2022-09-09T04:23:44;15.50;99.90
27619;DHT22;15039;50.830;4.730;2022-09-09T04:26:09;15.60;99.90
27619;DHT22;15039;50.830;4.730;2022-09-09T04:28:36;15.60;99.90
27619;DHT22;15039;50.830;4.730;2022-09-09T04:31:07;15.60;99.90
27619;DHT22;15039;50.830;4.730;2022-09-09T04:33:33;15.60;99.90
27619;DHT22;15039;50.830;4.730;2022-09-09T04:35:58;15.60;99.90
27619;DHT22;15039;50.830;4.730;2022-09-09T04:38:24;15.60;99.90
27619;DHT22;15039;50.830;4.730;2022-09-09T04:40:51;15.60;99.90
27619;DHT22;15039;50.830;4.730;2022-09-09T04:43:18;15.70;99.90
27619;DHT22;15039;50.830;4.730;2022-09-09T04:45:48;15.70;99.90
27619;DHT22;15039;50.830;4.730;2022-09-09T04:48:14;15.60;99.90
27619;DHT22;15039;50.830;4.730;2022-09-09T04:50:40;15.60;99.90
27619;DHT22;15039;50.830;4.730;2022-09-09T04:53:06;15.60;99.90
27619;DHT22;15039;50.830;4.730;2022-09-09T04:55:32;15.60;99.90
27619;DHT22;15039;50.830;4.730;2022-09-09T04:58:04;15.50;99.90
27619;DHT22;15039;50.830;4.730;2022-09-09T05:00:31;15.50;99.90
27619;DHT22;15039;50.830;4.730;2022-09-09T05:02:56;15.50;99.90
27619;DHT22;15039;50.830;4.730;2022-09-09T05:05:22;15.50;99.90
27619;DHT22;15039;50.830;4.730;2022-09-09T05:07:48;15.50;99.90
27619;DHT22;15039;50.830;4.730;2022-09-09T05:10:14;15.50;99.90
27619;DHT22;15039;50.830;4.730;2022-09-09T05:12:42;15.50;99.90
27619;DHT22;15039;50.830;4.730;2022-09-09T05:15:08;15.50;99.90
27619;DHT22;15039;50.830;4.730;2022-09-09T05:17:34;15.50;99.90
27619;DHT22;15039;50.830;4.730;2022-09-09T05:20:00;15.50;99.90
27619;DHT22;15039;50.830;4.730;2022-09-09T05:22:28;15.50;99.90
27619;DHT22;15039;50.830;4.730;2022-09-09T05:24:53;15.40;99.90
27619;DHT22;15039;50.830;4.730;2022-09-09T05:27:19;15.40;99.90
27619;DHT22;15039;50.830;4.730;2022-09-09T05:29:45;15.50;99.90
27619;DHT22;15039;50.830;4.730;2022-09-09T05:32:11;15.60;99.90
27619;DHT22;15039;50.830;4.730;2022-09-09T05:34:39;15.60;99.90
27619;DHT22;15039;50.830;4.730;2022-09-09T05:37:04;15.60;99.90
27619;DHT22;15039;50.830;4.730;2022-09-09T05:39:30;15.70;99.90
27619;DHT22;15039;50.830;4.730;2022-09-09T05:41:56;15.80;99.90
27619;DHT22;15039;50.830;4.730;2022-09-09T05:44:22;15.80;99.90
27619;DHT22;15039;50.830;4.730;2022-09-09T05:46:50;15.90;99.90
27619;DHT22;15039;50.830;4.730;2022-09-09T05:49:16;15.90;99.90
27619;DHT22;15039;50.830;4.730;2022-09-09T05:51:41;16.00;99.90
27619;DHT22;15039;50.830;4.730;2022-09-09T05:54:08;16.10;99.90
27619;DHT22;15039;50.830;4.730;2022-09-09T05:56:34;16.20;99.90
27619;DHT22;15039;50.830;4.730;2022-09-09T05:59:00;16.20;99.90
27619;DHT22;15039;50.830;4.730;2022-09-09T06:01:31;16.20;99.90
27619;DHT22;15039;50.830;4.730;2022-09-09T06:03:59;16.30;99.90
27619;DHT22;15039;50.830;4.730;2022-09-09T06:06:35;16.40;99.90
27619;DHT22;15039;50.830;4.730;2022-09-09T06:09:03;16.40;99.90
27619;DHT22;15039;50.830;4.730;2022-09-09T06:11:30;16.50;99.90
27619;DHT22;15039;50.830;4.730;2022-09-09T06:13:56;16.50;99.90
27619;DHT22;15039;50.830;4.730;2022-09-09T06:16:30;16.50;99.90
27619;DHT22;15039;50.830;4.730;2022-09-09T06:18:58;16.50;99.90
27619;DHT22;15039;50.830;4.730;2022-09-09T06:21:33;16.50;99.90
27619;DHT22;15039;50.830;4.730;2022-09-09T06:24:00;16.60;99.90
27619;DHT22;15039;50.830;4.730;2022-09-09T06:26:29;16.60;99.90
27619;DHT22;15039;50.830;4.730;2022-09-09T06:28:56;16.70;99.90
27619;DHT22;15039;50.830;4.730;2022-09-09T06:31:25;16.70;99.90
27619;DHT22;15039;50.830;4.730;2022-09-09T06:33:52;16.80;99.90
27619;DHT22;15039;50.830;4.730;2022-09-09T06:36:22;16.80;99.90
27619;DHT22;15039;50.830;4.730;2022-09-09T06:38:49;16.80;99.90
27619;DHT22;15039;50.830;4.730;2022-09-09T06:41:17;16.80;99.90
27619;DHT22;15039;50.830;4.730;2022-09-09T06:43:44;16.90;99.90
27619;DHT22;15039;50.830;4.730;2022-09-09T06:46:15;16.90;99.90
27619;DHT22;15039;50.830;4.730;2022-09-09T06:48:42;16.90;99.90
27619;DHT22;15039;50.830;4.730;2022-09-09T06:53:38;17.20;99.90
27619;DHT22;15039;50.830;4.730;2022-09-09T06:58:41;17.60;99.90
27619;DHT22;15039;50.830;4.730;2022-09-09T07:01:08;17.60;99.90
27619;DHT22;15039;50.830;4.730;2022-09-09T07:03:35;17.50;99.90
27619;DHT22;15039;50.830;4.730;2022-09-09T07:06:01;17.50;99.90
27619;DHT22;15039;50.830;4.730;2022-09-09T07:08:27;17.50;99.90
27619;DHT22;15039;50.830;4.730;2022-09-09T07:10:53;17.40;99.90
27619;DHT22;15039;50.830;4.730;2022-09-09T07:13:26;17.40;99.90
27619;DHT22;15039;50.830;4.730;2022-09-09T07:15:52;17.40;99.90
27619;DHT22;15039;50.830;4.730;2022-09-09T07:18:21;17.40;99.90
27619;DHT22;15039;50.830;4.730;2022-09-09T07:20:54;17.40;99.90
27619;DHT22;15039;50.830;4.730;2022-09-09T07:23:23;17.40;99.90
27619;DHT22;15039;50.830;4.730;2022-09-09T07:25:49;17.40;99.90
27619;DHT22;15039;50.830;4.730;2022-09-09T07:28:16;17.40;99.90
27619;DHT22;15039;50.830;4.730;2022-09-09T07:30:42;17.60;99.90
27619;DHT22;15039;50.830;4.730;2022-09-09T07:33:09;17.60;99.90
27619;DHT22;15039;50.830;4.730;2022-09-09T07:35:38;17.70;99.90
27619;DHT22;15039;50.830;4.730;2022-09-09T07:38:05;17.60;99.90
27619;DHT22;15039;50.830;4.730;2022-09-09T07:40:33;17.60;99.90
27619;DHT22;15039;50.830;4.730;2022-09-09T07:42:59;17.60;99.90
27619;DHT22;15039;50.830;4.730;2022-09-09T07:45:25;17.60;99.90
27619;DHT22;15039;50.830;4.730;2022-09-09T07:47:54;17.60;99.90
27619;DHT22;15039;50.830;4.730;2022-09-09T07:50:22;17.50;99.90
27619;DHT22;15039;50.830;4.730;2022-09-09T07:52:49;17.50;99.90
27619;DHT22;15039;50.830;4.730;2022-09-09T07:55:15;17.60;99.90
27619;DHT22;15039;50.830;4.730;2022-09-09T07:57:40;17.50;99.90
27619;DHT22;15039;50.830;4.730;2022-09-09T08:00:06;17.40;99.90
27619;DHT22;15039;50.830;4.730;2022-09-09T08:02:32;17.40;99.90
27619;DHT22;15039;50.830;4.730;2022-09-09T08:04:58;17.50;99.90
27619;DHT22;15039;50.830;4.730;2022-09-09T08:07:24;17.70;99.90
27619;DHT22;15039;50.830;4.730;2022-09-09T08:09:51;17.70;99.90
27619;DHT22;15039;50.830;4.730;2022-09-09T08:12:16;17.90;99.90
27619;DHT22;15039;50.830;4.730;2022-09-09T08:14:42;18.00;99.90
27619;DHT22;15039;50.830;4.730;2022-09-09T08:17:08;18.10;99.90
27619;DHT22;15039;50.830;4.730;2022-09-09T08:19:34;18.20;99.90
27619;DHT22;15039;50.830;4.730;2022-09-09T08:22:02;18.20;99.90
27619;DHT22;15039;50.830;4.730;2022-09-09T08:24:28;18.10;99.90
27619;DHT22;15039;50.830;4.730;2022-09-09T08:26:54;18.00;99.90
27619;DHT22;15039;50.830;4.730;2022-09-09T08:29:22;18.00;99.90
27619;DHT22;15039;50.830;4.730;2022-09-09T08:31:56;18.10;99.90
27619;DHT22;15039;50.830;4.730;2022-09-09T08:34:23;18.10;99.90
27619;DHT22;15039;50.830;4.730;2022-09-09T08:36:50;18.20;99.90
27619;DHT22;15039;50.830;4.730;2022-09-09T08:39:18;18.40;99.90
27619;DHT22;15039;50.830;4.730;2022-09-09T08:42:13;18.50;99.90
27619;DHT22;15039;50.830;4.730;2022-09-09T08:48:01;18.70;99.90
27619;DHT22;15039;50.830;4.730;2022-09-09T08:50:32;18.70;99.90
27619;DHT22;15039;50.830;4.730;2022-09-09T08:53:17;18.40;99.90
27619;DHT22;15039;50.830;4.730;2022-09-09T08:55:50;18.30;99.90
27619;DHT22;15039;50.830;4.730;2022-09-09T08:58:26;18.20;99.90
27619;DHT22;15039;50.830;4.730;2022-09-09T09:03:54;18.00;99.90
27619;DHT22;15039;50.830;4.730;2022-09-09T09:11:58;17.70;99.90
27619;DHT22;15039;50.830;4.730;2022-09-09T09:14:28;17.60;99.90
27619;DHT22;15039;50.830;4.730;2022-09-09T09:16:59;17.50;99.90
27619;DHT22;15039;50.830;4.730;2022-09-09T09:19:29;17.50;99.90
27619;DHT22;15039;50.830;4.730;2022-09-09T09:25:22;17.40;99.90
27619;DHT22;15039;50.830;4.730;2022-09-09T09:28:12;17.40;99.90
27619;DHT22;15039;50.830;4.730;2022-09-09T09:30:47;17.20;99.90
27619;DHT22;15039;50.830;4.730;2022-09-09T09:33:22;17.10;99.90
27619;DHT22;15039;50.830;4.730;2022-09-09T09:35:51;17.00;99.90
27619;DHT22;15039;50.830;4.730;2022-09-09T09:38:20;17.00;99.90
27619;DHT22;15039;50.830;4.730;2022-09-09T09:40:58;16.90;99.90
27619;DHT22;15039;50.830;4.730;2022-09-09T09:43:26;17.00;99.90
27619;DHT22;15039;50.830;4.730;2022-09-09T09:45:53;16.90;99.90
27619;DHT22;15039;50.830;4.730;2022-09-09T09:48:24;17.00;99.90
27619;DHT22;15039;50.830;4.730;2022-09-09T09:50:58;17.20;99.90
27619;DHT22;15039;50.830;4.730;2022-09-09T09:53:33;17.10;99.90
27619;DHT22;15039;50.830;4.730;2022-09-09T09:58:55;17.50;99.90
27619;DHT22;15039;50.830;4.730;2022-09-09T10:01:32;17.60;99.90
27619;DHT22;15039;50.830;4.730;2022-09-09T10:04:18;17.60;99.90
27619;DHT22;15039;50.830;4.730;2022-09-09T10:06:47;17.50;99.90
27619;DHT22;15039;50.830;4.730;2022-09-09T10:09:28;17.50;99.90
27619;DHT22;15039;50.830;4.730;2022-09-09T10:43:50;17.50;99.90
27619;DHT22;15039;50.830;4.730;2022-09-09T10:52:32;17.60;99.90
27619;DHT22;15039;50.830;4.730;2022-09-09T10:55:18;17.80;99.90
27619;DHT22;15039;50.830;4.730;2022-09-09T10:57:50;18.00;99.90
27619;DHT22;15039;50.830;4.730;2022-09-09T11:00:23;18.10;99.90
27619;DHT22;15039;50.830;4.730;2022-09-09T11:03:03;18.30;99.90
27619;DHT22;15039;50.830;4.730;2022-09-09T11:05:42;18.40;99.90
27619;DHT22;15039;50.830;4.730;2022-09-09T11:08:29;18.50;99.90
27619;DHT22;15039;50.830;4.730;2022-09-09T11:11:17;18.70;99.90
27619;DHT22;15039;50.830;4.730;2022-09-09T11:18:57;18.80;99.90
27619;DHT22;15039;50.830;4.730;2022-09-09T11:21:36;19.00;99.90
27619;DHT22;15039;50.830;4.730;2022-09-09T11:24:10;18.90;99.90
27619;DHT22;15039;50.830;4.730;2022-09-09T11:26:44;18.90;99.90
27619;DHT22;15039;50.830;4.730;2022-09-09T11:29:45;19.00;99.90
27619;DHT22;15039;50.830;4.730;2022-09-09T11:35:09;19.20;99.90
27619;DHT22;15039;50.830;4.730;2022-09-09T11:40:47;18.90;99.90
27619;DHT22;15039;50.830;4.730;2022-09-09T11:43:38;19.00;99.90
27619;DHT22;15039;50.830;4.730;2022-09-09T11:46:05;19.00;99.90
27619;DHT22;15039;50.830;4.730;2022-09-09T11:48:45;19.00;99.90
27619;DHT22;15039;50.830;4.730;2022-09-09T11:53:58;19.10;99.90
27619;DHT22;15039;50.830;4.730;2022-09-09T11:56:34;19.30;99.90
27619;DHT22;15039;50.830;4.730;2022-09-09T11:59:27;19.30;99.90
27619;DHT22;15039;50.830;4.730;2022-09-09T12:01:58;19.20;99.90
27619;DHT22;15039;50.830;4.730;2022-09-09T12:06:52;19.20;99.90
27619;DHT22;15039;50.830;4.730;2022-09-09T12:14:56;19.80;99.90
27619;DHT22;15039;50.830;4.730;2022-09-09T12:17:24;19.90;99.90
27619;DHT22;15039;50.830;4.730;2022-09-09T12:20:12;19.90;99.90
27619;DHT22;15039;50.830;4.730;2022-09-09T12:25:49;19.80;99.90
27619;DHT22;15039;50.830;4.730;2022-09-09T12:28:22;19.90;99.90
27619;DHT22;15039;50.830;4.730;2022-09-09T12:33:44;20.10;99.90
27619;DHT22;15039;50.830;4.730;2022-09-09T12:36:15;20.40;99.90
27619;DHT22;15039;50.830;4.730;2022-09-09T12:38:43;20.50;99.90
27619;DHT22;15039;50.830;4.730;2022-09-09T12:41:26;20.40;99.90
27619;DHT22;15039;50.830;4.730;2022-09-09T12:44:04;20.20;99.90
27619;DHT22;15039;50.830;4.730;2022-09-09T12:46:36;20.30;99.90
27619;DHT22;15039;50.830;4.730;2022-09-09T12:49:04;20.40;99.90
27619;DHT22;15039;50.830;4.730;2022-09-09T12:51:33;20.40;99.90
27619;DHT22;15039;50.830;4.730;2022-09-09T12:53:59;20.40;99.90
27619;DHT22;15039;50.830;4.730;2022-09-09T12:56:28;20.40;99.90
27619;DHT22;15039;50.830;4.730;2022-09-09T12:58:57;20.40;99.90
27619;DHT22;15039;50.830;4.730;2022-09-09T13:01:31;20.40;99.90
27619;DHT22;15039;50.830;4.730;2022-09-09T13:03:59;20.50;99.90
27619;DHT22;15039;50.830;4.730;2022-09-09T13:06:26;20.70;99.90
27619;DHT22;15039;50.830;4.730;2022-09-09T13:08:54;20.70;99.90
27619;DHT22;15039;50.830;4.730;2022-09-09T13:11:41;20.60;99.90
27619;DHT22;15039;50.830;4.730;2022-09-09T13:14:28;20.50;99.90
27619;DHT22;15039;50.830;4.730;2022-09-09T13:16:59;20.40;99.90
27619;DHT22;15039;50.830;4.730;2022-09-09T13:19:26;20.60;99.90
27619;DHT22;15039;50.830;4.730;2022-09-09T13:21:54;20.70;99.90
27619;DHT22;15039;50.830;4.730;2022-09-09T13:24:32;20.50;99.90
27619;DHT22;15039;50.830;4.730;2022-09-09T13:27:22;20.40;99.90
27619;DHT22;15039;50.830;4.730;2022-09-09T13:29:53;20.40;99.90
27619;DHT22;15039;50.830;4.730;2022-09-09T13:32:24;20.30;99.90
27619;DHT22;15039;50.830;4.730;2022-09-09T13:37:33;20.30;99.90
27619;DHT22;15039;50.830;4.730;2022-09-09T13:39:59;20.20;99.90
27619;DHT22;15039;50.830;4.730;2022-09-09T13:42:30;20.10;99.90
27619;DHT22;15039;50.830;4.730;2022-09-09T13:44:58;20.20;99.90
27619;DHT22;15039;50.830;4.730;2022-09-09T13:47:35;20.40;99.90
27619;DHT22;15039;50.830;4.730;2022-09-09T13:52:47;20.60;99.90
27619;DHT22;15039;50.830;4.730;2022-09-09T13:55:13;20.60;99.90
27619;DHT22;15039;50.830;4.730;2022-09-09T13:57:38;20.70;99.90
27619;DHT22;15039;50.830;4.730;2022-09-09T14:00:05;20.70;99.90
27619;DHT22;15039;50.830;4.730;2022-09-09T14:02:32;20.70;99.90
27619;DHT22;15039;50.830;4.730;2022-09-09T14:04:59;20.80;99.90
27619;DHT22;15039;50.830;4.730;2022-09-09T14:07:24;20.90;99.90
27619;DHT22;15039;50.830;4.730;2022-09-09T14:09:50;20.90;99.90
27619;DHT22;15039;50.830;4.730;2022-09-09T14:12:17;21.00;99.90
27619;DHT22;15039;50.830;4.730;2022-09-09T14:14:43;21.00;99.90
27619;DHT22;15039;50.830;4.730;2022-09-09T14:17:09;20.90;99.90
27619;DHT22;15039;50.830;4.730;2022-09-09T14:19:35;20.90;99.90
27619;DHT22;15039;50.830;4.730;2022-09-09T14:22:02;20.90;99.90
27619;DHT22;15039;50.830;4.730;2022-09-09T14:24:28;21.10;99.90
27619;DHT22;15039;50.830;4.730;2022-09-09T14:26:54;21.20;99.90
27619;DHT22;15039;50.830;4.730;2022-09-09T14:29:20;21.20;99.90
27619;DHT22;15039;50.830;4.730;2022-09-09T14:31:46;21.10;99.90
27619;DHT22;15039;50.830;4.730;2022-09-09T14:34:12;21.00;99.90
27619;DHT22;15039;50.830;4.730;2022-09-09T14:36:40;21.00;99.90
27619;DHT22;15039;50.830;4.730;2022-09-09T14:39:07;21.10;99.90
27619;DHT22;15039;50.830;4.730;2022-09-09T14:41:32;21.10;99.90
27619;DHT22;15039;50.830;4.730;2022-09-09T14:43:58;21.10;99.90
27619;DHT22;15039;50.830;4.730;2022-09-09T14:46:25;21.00;99.90
27619;DHT22;15039;50.830;4.730;2022-09-09T14:48:52;20.90;99.90
27619;DHT22;15039;50.830;4.730;2022-09-09T14:51:22;21.00;99.90
27619;DHT22;15039;50.830;4.730;2022-09-09T14:53:51;21.10;99.90
27619;DHT22;15039;50.830;4.730;2022-09-09T14:56:20;21.30;99.90
27619;DHT22;15039;50.830;4.730;2022-09-09T14:58:47;21.30;99.90
27619;DHT22;15039;50.830;4.730;2022-09-09T15:01:17;21.30;99.90
27619;DHT22;15039;50.830;4.730;2022-09-09T15:03:50;21.30;99.90
27619;DHT22;15039;50.830;4.730;2022-09-09T15:06:16;21.30;99.90
27619;DHT22;15039;50.830;4.730;2022-09-09T15:08:44;21.20;99.90
27619;DHT22;15039;50.830;4.730;2022-09-09T15:11:12;21.20;99.90
27619;DHT22;15039;50.830;4.730;2022-09-09T15:13:39;21.10;99.90
27619;DHT22;15039;50.830;4.730;2022-09-09T15:16:07;21.30;99.90
27619;DHT22;15039;50.830;4.730;2022-09-09T15:18:35;21.40;99.90
27619;DHT22;15039;50.830;4.730;2022-09-09T15:21:02;21.20;99.90
27619;DHT22;15039;50.830;4.730;2022-09-09T15:23:32;21.10;99.90
27619;DHT22;15039;50.830;4.730;2022-09-09T15:25:58;21.10;99.90
27619;DHT22;15039;50.830;4.730;2022-09-09T15:28:24;20.90;99.90
27619;DHT22;15039;50.830;4.730;2022-09-09T15:30:50;20.70;99.90
27619;DHT22;15039;50.830;4.730;2022-09-09T15:33:18;20.50;99.90
27619;DHT22;15039;50.830;4.730;2022-09-09T15:35:44;20.50;99.90
27619;DHT22;15039;50.830;4.730;2022-09-09T15:38:09;20.50;99.90
27619;DHT22;15039;50.830;4.730;2022-09-09T15:40:35;20.70;99.90
27619;DHT22;15039;50.830;4.730;2022-09-09T15:43:01;20.70;99.90
27619;DHT22;15039;50.830;4.730;2022-09-09T15:45:28;20.70;99.90
27619;DHT22;15039;50.830;4.730;2022-09-09T15:47:57;20.60;99.90
27619;DHT22;15039;50.830;4.730;2022-09-09T15:50:24;20.90;99.90
27619;DHT22;15039;50.830;4.730;2022-09-09T15:52:50;20.90;99.90
27619;DHT22;15039;50.830;4.730;2022-09-09T15:55:17;21.10;99.90
27619;DHT22;15039;50.830;4.730;2022-09-09T15:57:43;21.20;99.90
27619;DHT22;15039;50.830;4.730;2022-09-09T16:00:09;21.20;99.90
27619;DHT22;15039;50.830;4.730;2022-09-09T16:02:37;21.10;99.90
27619;DHT22;15039;50.830;4.730;2022-09-09T16:05:03;21.10;99.90
27619;DHT22;15039;50.830;4.730;2022-09-09T16:07:30;21.20;99.90
27619;DHT22;15039;50.830;4.730;2022-09-09T16:09:56;21.20;99.90
27619;DHT22;15039;50.830;4.730;2022-09-09T16:12:21;21.20;99.90
27619;DHT22;15039;50.830;4.730;2022-09-09T16:14:47;21.10;99.90
27619;DHT22;15039;50.830;4.730;2022-09-09T16:17:12;21.00;99.90
27619;DHT22;15039;50.830;4.730;2022-09-09T16:19:39;21.10;99.90
27619;DHT22;15039;50.830;4.730;2022-09-09T16:22:05;21.10;99.90
27619;DHT22;15039;50.830;4.730;2022-09-09T16:24:32;21.10;99.90
27619;DHT22;15039;50.830;4.730;2022-09-09T16:26:58;21.00;99.90
27619;DHT22;15039;50.830;4.730;2022-09-09T16:29:24;21.00;99.90
27619;DHT22;15039;50.830;4.730;2022-09-09T16:31:53;20.90;99.90
27619;DHT22;15039;50.830;4.730;2022-09-09T16:34:19;20.90;99.90
27619;DHT22;15039;50.830;4.730;2022-09-09T16:36:50;20.80;99.90
27619;DHT22;15039;50.830;4.730;2022-09-09T16:39:20;20.70;99.90
27619;DHT22;15039;50.830;4.730;2022-09-09T16:41:47;20.70;99.90
27619;DHT22;15039;50.830;4.730;2022-09-09T16:44:15;20.60;99.90
27619;DHT22;15039;50.830;4.730;2022-09-09T16:46:43;20.50;99.90
27619;DHT22;15039;50.830;4.730;2022-09-09T16:49:21;20.40;99.90
27619;DHT22;15039;50.830;4.730;2022-09-09T16:51:48;20.30;99.90
27619;DHT22;15039;50.830;4.730;2022-09-09T16:54:16;20.30;99.90
27619;DHT22;15039;50.830;4.730;2022-09-09T16:56:45;20.20;99.90
27619;DHT22;15039;50.830;4.730;2022-09-09T16:59:17;20.00;99.90
27619;DHT22;15039;50.830;4.730;2022-09-09T17:01:59;19.90;99.90
27619;DHT22;15039;50.830;4.730;2022-09-09T17:04:30;19.60;99.90
27619;DHT22;15039;50.830;4.730;2022-09-09T17:06:58;19.00;99.90
27619;DHT22;15039;50.830;4.730;2022-09-09T17:09:27;18.60;99.90
27619;DHT22;15039;50.830;4.730;2022-09-09T17:12:10;18.30;99.90
27619;DHT22;15039;50.830;4.730;2022-09-09T17:14:41;18.20;99.90
27619;DHT22;15039;50.830;4.730;2022-09-09T17:17:10;18.10;99.90
27619;DHT22;15039;50.830;4.730;2022-09-09T17:19:36;18.10;99.90
27619;DHT22;15039;50.830;4.730;2022-09-09T17:22:16;18.10;99.90
27619;DHT22;15039;50.830;4.730;2022-09-09T17:24:45;17.90;99.90
27619;DHT22;15039;50.830;4.730;2022-09-09T17:27:19;17.80;99.90
27619;DHT22;15039;50.830;4.730;2022-09-09T17:29:44;17.80;99.90
27619;DHT22;15039;50.830;4.730;2022-09-09T17:32:11;17.80;99.90
27619;DHT22;15039;50.830;4.730;2022-09-09T17:34:37;17.80;99.90
27619;DHT22;15039;50.830;4.730;2022-09-09T17:37:04;17.90;99.90
27619;DHT22;15039;50.830;4.730;2022-09-09T17:39:33;17.90;99.90
27619;DHT22;15039;50.830;4.730;2022-09-09T17:41:59;17.90;99.90
27619;DHT22;15039;50.830;4.730;2022-09-09T17:44:26;17.90;99.90
27619;DHT22;15039;50.830;4.730;2022-09-09T17:46:51;17.80;99.90